createdAt,value
2018-04-24T00:01:52.808Z,12.17
2018-04-24T00:04:22.613Z,12.93
2018-04-24T00:06:52.998Z,12.90
2018-04-24T00:09:22.808Z,11.27
2018-04-24T00:11:52.623Z,13.40
2018-04-24T00:14:22.435Z,12.80
2018-04-24T00:16:52.235Z,11.23
2018-04-24T00:19:22.070Z,13.87
2018-04-24T00:21:51.874Z,10.73
2018-04-24T00:24:21.686Z,13.77
2018-04-24T00:26:51.490Z,12.87
2018-04-24T00:29:21.292Z,14.30
2018-04-24T00:31:51.114Z,13.70
2018-04-24T00:34:20.946Z,12.60
2018-04-24T00:36:50.732Z,12.87
2018-04-24T00:39:21.294Z,12.20
2018-04-24T00:41:51.855Z,10.90
2018-04-24T00:44:21.670Z,12.97
2018-04-24T00:46:51.489Z,12.40
2018-04-24T00:49:21.286Z,11.50
2018-04-24T00:51:51.086Z,12.63
2018-04-24T00:54:21.662Z,12.60
2018-04-24T00:56:51.603Z,13.33
2018-04-24T00:59:21.515Z,14.33
2018-04-24T01:01:51.316Z,10.80
2018-04-24T01:04:21.124Z,13.93
2018-04-24T01:06:51.021Z,11.27
2018-04-24T01:09:20.739Z,14.17
2018-04-24T01:11:50.550Z,13.17
2018-04-24T01:14:20.356Z,15.60
2018-04-24T01:16:50.148Z,14.33
2018-04-24T01:19:19.959Z,11.57
2018-04-24T01:21:49.759Z,10.93
2018-04-24T01:24:19.568Z,14.23
2018-04-24T01:26:50.136Z,15.27
2018-04-24T01:29:19.943Z,14.83
2018-04-24T01:31:49.743Z,18.30
2018-04-24T01:34:19.556Z,13.90
2018-04-24T01:36:49.347Z,18.80
2018-04-24T01:39:19.929Z,15.43
2018-04-24T01:41:49.737Z,15.00
2018-04-24T01:44:19.544Z,15.67
2018-04-24T01:46:49.338Z,16.57
2018-04-24T01:49:19.160Z,17.17
2018-04-24T01:51:48.963Z,15.37
2018-04-24T01:54:18.776Z,16.23
2018-04-24T01:56:48.621Z,15.63
2018-04-24T01:59:18.407Z,15.80
2018-04-24T02:01:48.255Z,15.40
2018-04-24T02:04:18.055Z,16.23
2018-04-24T02:06:47.904Z,17.27
2018-04-24T02:09:18.473Z,14.90
2018-04-24T02:11:48.295Z,15.03
2018-04-24T02:14:18.094Z,15.77
2018-04-24T02:16:47.919Z,14.97
2018-04-24T02:19:17.719Z,14.73
2018-04-24T02:21:47.535Z,16.70
2018-04-24T02:24:17.342Z,13.67
2018-04-24T02:26:47.150Z,17.30
2018-04-24T02:29:16.951Z,14.93
2018-04-24T02:31:46.764Z,14.17
2018-04-24T02:34:16.571Z,14.27
2018-04-24T02:36:46.392Z,14.47
2018-04-24T02:39:16.187Z,13.97
2018-04-24T02:41:46.755Z,14.60
2018-04-24T02:44:16.560Z,13.80
2018-04-24T02:46:46.364Z,13.07
2018-04-24T02:49:16.183Z,15.40
2018-04-24T02:51:46.000Z,14.80
2018-04-24T02:54:16.570Z,12.67
2018-04-24T02:56:46.381Z,14.53
2018-04-24T02:59:16.179Z,14.57
2018-04-24T03:01:45.982Z,10.90
2018-04-24T03:04:15.773Z,12.77
2018-04-24T03:06:45.584Z,13.80
2018-04-24T03:09:15.400Z,11.93
2018-04-24T03:11:45.223Z,11.73
2018-04-24T03:14:15.019Z,11.93
2018-04-24T03:16:44.836Z,9.67
2018-04-24T03:19:14.627Z,13.00
2018-04-24T03:21:44.435Z,11.80
2018-04-24T03:24:14.240Z,9.30
2018-04-24T03:26:44.812Z,11.20
2018-04-24T03:29:14.623Z,11.53
2018-04-24T03:31:44.448Z,11.93
2018-04-24T03:34:14.251Z,12.43
2018-04-24T03:36:44.059Z,9.37
2018-04-24T03:39:13.855Z,9.80
2018-04-24T03:41:43.661Z,12.07
2018-04-24T03:44:13.459Z,10.80
2018-04-24T03:46:44.023Z,9.47
2018-04-24T03:49:13.814Z,9.13
2018-04-24T03:51:44.464Z,12.10
2018-04-24T03:54:14.955Z,12.60
2018-04-24T03:56:45.519Z,9.00
2018-04-24T03:59:15.336Z,10.83
2018-04-24T04:01:45.150Z,10.57
2018-04-24T04:04:14.944Z,11.20
2018-04-24T04:06:44.743Z,9.97
2018-04-24T04:09:15.324Z,10.73
2018-04-24T04:11:45.160Z,9.93
2018-04-24T04:14:14.954Z,7.87
2018-04-24T04:16:44.752Z,9.03
2018-04-24T04:22:46.161Z,10.23
2018-04-24T04:25:15.964Z,10.20
2018-04-24T04:27:45.782Z,10.07
2018-04-24T04:30:15.580Z,10.33
2018-04-24T04:32:45.407Z,12.00
2018-04-24T04:35:15.215Z,8.97
2018-04-24T04:37:45.035Z,8.77
2018-04-24T04:40:14.831Z,9.53
2018-04-24T04:42:44.641Z,10.77
2018-04-24T04:45:14.435Z,10.40
2018-04-24T04:47:44.314Z,11.27
2018-04-24T04:50:14.056Z,10.83
2018-04-24T04:52:43.884Z,13.20
2018-04-24T04:55:13.680Z,10.93
2018-04-24T04:57:43.487Z,13.23
2018-04-24T05:00:13.300Z,13.30
2018-04-24T05:02:43.103Z,11.40
2018-04-24T05:05:12.997Z,14.17
2018-04-24T05:07:42.743Z,18.10
2018-04-24T05:10:12.563Z,15.97
2018-04-24T05:12:42.370Z,14.23
2018-04-24T05:15:12.191Z,13.73
2018-04-24T05:17:41.997Z,14.13
2018-04-24T05:20:11.903Z,12.80
2018-04-24T05:22:41.623Z,16.70
2018-04-24T05:25:11.452Z,15.47
2018-04-24T05:27:41.265Z,14.07
2018-04-24T05:30:11.081Z,14.07
2018-04-24T05:32:40.884Z,15.37
2018-04-24T05:35:10.713Z,13.93
2018-04-24T05:37:40.519Z,16.53
2018-04-24T05:40:10.323Z,13.87
2018-04-24T05:42:40.187Z,17.83
2018-04-24T05:45:10.009Z,19.10
2018-04-24T05:47:39.820Z,12.43
2018-04-24T05:50:09.636Z,15.20
2018-04-24T05:52:39.452Z,13.90
2018-04-24T05:55:09.250Z,13.10
2018-04-24T05:57:39.065Z,16.23
2018-04-24T06:00:08.880Z,13.53
2018-04-24T06:02:38.684Z,12.93
2018-04-24T06:05:08.504Z,14.40
2018-04-24T06:07:38.316Z,13.87
2018-04-24T06:10:08.140Z,13.33
2018-04-24T06:12:37.963Z,13.23
2018-04-24T06:15:07.791Z,12.60
2018-04-24T06:17:37.589Z,12.97
2018-04-24T06:20:07.411Z,15.63
2018-04-24T06:22:37.309Z,13.13
2018-04-24T06:25:07.063Z,14.87
2018-04-24T06:27:37.638Z,12.67
2018-04-24T06:30:07.468Z,12.53
2018-04-24T06:32:37.276Z,12.73
2018-04-24T06:35:07.088Z,12.70
2018-04-24T06:37:36.900Z,14.53
2018-04-24T06:40:06.709Z,12.70
2018-04-24T06:42:36.520Z,14.37
2018-04-24T06:45:06.347Z,14.57
2018-04-24T06:47:36.166Z,13.90
2018-04-24T06:50:05.966Z,13.57
2018-04-24T06:52:35.788Z,13.60
2018-04-24T06:55:05.659Z,12.97
2018-04-24T06:57:35.421Z,13.17
2018-04-24T07:00:05.224Z,13.83
2018-04-24T07:02:35.031Z,14.47
2018-04-24T07:05:04.847Z,14.03
2018-04-24T07:07:34.656Z,17.60
2018-04-24T07:10:04.459Z,15.50
2018-04-24T07:12:35.030Z,16.30
2018-04-24T07:15:05.609Z,16.23
2018-04-24T07:17:35.410Z,14.50
2018-04-24T07:20:05.216Z,15.33
2018-04-24T07:22:35.036Z,14.70
2018-04-24T07:25:04.895Z,14.60
2018-04-24T07:27:34.673Z,17.57
2018-04-24T07:30:04.467Z,18.80
2018-04-24T07:32:34.283Z,16.47
2018-04-24T07:35:04.095Z,18.53
2018-04-24T07:37:33.900Z,19.30
2018-04-24T07:40:03.707Z,17.70
2018-04-24T07:42:34.292Z,19.10
2018-04-24T07:45:04.113Z,16.33
2018-04-24T07:47:33.911Z,17.30
2018-04-24T07:50:03.716Z,16.93
2018-04-24T07:52:33.552Z,17.30
2018-04-24T07:55:03.391Z,17.67
2018-04-24T07:57:33.964Z,17.53
2018-04-24T08:00:03.766Z,17.17
2018-04-24T08:02:33.582Z,17.37
2018-04-24T08:05:03.395Z,18.20
2018-04-24T08:07:33.199Z,17.47
2018-04-24T08:10:02.999Z,17.20
2018-04-24T08:12:32.815Z,17.00
2018-04-24T08:15:02.637Z,18.57
2018-04-24T08:17:32.452Z,21.60
2018-04-24T08:20:02.255Z,19.03
2018-04-24T08:22:40.769Z,21.80
2018-04-24T08:25:10.573Z,18.60
2018-04-24T08:27:40.407Z,18.93
2018-04-24T08:30:10.220Z,20.57
2018-04-24T08:32:40.037Z,19.37
2018-04-24T08:35:09.840Z,18.97
2018-04-24T08:37:39.647Z,21.37
2018-04-24T08:40:09.520Z,19.27
2018-04-24T08:42:39.271Z,18.30
2018-04-24T08:45:09.082Z,17.77
2018-04-24T08:47:38.907Z,18.93
2018-04-24T08:50:08.711Z,18.43
2018-04-24T08:52:38.517Z,17.47
2018-04-24T08:55:08.340Z,17.03
2018-04-24T08:57:38.138Z,18.70
2018-04-24T09:00:07.950Z,17.17
2018-04-24T09:02:37.755Z,17.10
2018-04-24T09:05:07.568Z,18.00
2018-04-24T09:07:37.390Z,18.47
2018-04-24T09:10:07.204Z,18.80
2018-04-24T09:12:37.012Z,17.80
2018-04-24T09:15:06.828Z,18.33
2018-04-24T09:17:36.634Z,19.53
2018-04-24T09:20:06.458Z,15.80
2018-04-24T09:22:36.302Z,15.80
2018-04-24T09:25:06.120Z,20.13
2018-04-24T09:27:35.916Z,17.63
2018-04-24T09:30:05.728Z,16.63
2018-04-24T09:32:35.521Z,17.23
2018-04-24T09:35:05.340Z,18.80
2018-04-24T09:37:35.150Z,16.57
2018-04-24T09:40:04.960Z,18.57
2018-04-24T09:42:34.768Z,17.43
2018-04-24T09:45:04.585Z,17.27
2018-04-24T09:47:34.382Z,17.17
2018-04-24T09:50:04.196Z,18.10
2018-04-24T09:52:34.009Z,15.87
2018-04-24T09:55:03.822Z,18.23
2018-04-24T09:57:33.629Z,17.70
2018-04-24T10:00:03.438Z,15.53
2018-04-24T10:02:33.264Z,15.60
2018-04-24T10:05:03.087Z,15.37
2018-04-24T10:07:32.897Z,17.03
2018-04-24T10:10:02.708Z,17.40
2018-04-24T10:12:32.543Z,15.67
2018-04-24T10:15:02.338Z,16.17
2018-04-24T10:17:32.144Z,16.10
2018-04-24T10:20:01.959Z,16.13
2018-04-24T10:22:31.763Z,19.83
2018-04-24T10:25:01.578Z,15.37
2018-04-24T10:27:31.387Z,16.03
2018-04-24T10:30:01.213Z,15.73
2018-04-24T10:32:31.011Z,16.43
2018-04-24T10:35:00.827Z,17.67
2018-04-24T10:37:30.664Z,16.43
2018-04-24T10:40:00.464Z,16.60
2018-04-24T10:42:30.262Z,16.30
2018-04-24T10:45:00.075Z,16.23
2018-04-24T10:47:29.879Z,15.73
2018-04-24T10:49:59.697Z,17.83
2018-04-24T10:52:29.501Z,18.03
2018-04-24T10:54:59.318Z,16.57
2018-04-24T10:57:29.120Z,16.47
2018-04-24T10:59:58.937Z,15.97
2018-04-24T11:02:28.742Z,16.10
2018-04-24T11:04:58.568Z,17.33
2018-04-24T11:07:28.384Z,16.40
2018-04-24T11:09:58.195Z,17.27
2018-04-24T11:12:28.003Z,15.67
2018-04-24T11:14:57.827Z,17.07
2018-04-24T11:17:27.635Z,17.07
2018-04-24T11:19:57.443Z,16.60
2018-04-24T11:22:27.264Z,17.30
2018-04-24T11:24:57.093Z,17.90
2018-04-24T11:27:26.895Z,17.33
2018-04-24T11:29:56.710Z,17.23
2018-04-24T11:32:27.327Z,16.63
2018-04-24T11:34:57.880Z,19.20
2018-04-24T11:37:27.721Z,16.80
2018-04-24T11:39:57.499Z,20.27
2018-04-24T11:42:27.308Z,19.40
2018-04-24T11:44:57.127Z,19.50
2018-04-24T11:47:26.932Z,19.83
2018-04-24T11:49:56.742Z,18.80
2018-04-24T11:52:27.323Z,18.27
2018-04-24T11:54:57.893Z,18.17
2018-04-24T11:57:27.695Z,18.80
2018-04-24T11:59:57.512Z,17.50
2018-04-24T12:02:27.305Z,17.70
2018-04-24T12:04:57.127Z,18.27
2018-04-24T12:07:26.929Z,20.00
2018-04-24T12:09:56.803Z,27.60
2018-04-24T12:12:26.642Z,25.63
2018-04-24T12:14:56.435Z,19.60
2018-04-24T12:17:26.244Z,21.33
2018-04-24T12:19:56.055Z,19.53
2018-04-24T12:22:25.879Z,21.20
2018-04-24T12:24:55.685Z,21.03
2018-04-24T12:27:25.492Z,23.40
2018-04-24T12:29:55.311Z,21.80
2018-04-24T12:32:25.124Z,23.30
2018-04-24T12:34:54.952Z,24.30
2018-04-24T12:37:25.530Z,24.10
2018-04-24T12:39:55.360Z,28.90
2018-04-24T12:42:25.173Z,26.40
2018-04-24T12:44:54.987Z,27.27
2018-04-24T12:47:24.808Z,27.07
2018-04-24T12:49:54.609Z,24.30
2018-04-24T12:52:24.428Z,28.50
2018-04-24T12:54:54.224Z,26.97
2018-04-24T12:57:24.806Z,28.60
2018-04-24T12:59:55.380Z,26.07
2018-04-24T13:02:25.196Z,27.13
2018-04-24T13:04:55.004Z,27.03
2018-04-24T13:07:24.819Z,23.90
2018-04-24T13:09:54.645Z,19.43
2018-04-24T13:12:24.517Z,24.67
2018-04-24T13:14:54.252Z,21.37
2018-04-24T13:17:24.069Z,20.37
2018-04-24T13:19:53.872Z,24.80
2018-04-24T13:22:23.682Z,22.07
2018-04-24T13:24:53.494Z,24.10
2018-04-24T13:27:23.316Z,23.33
2018-04-24T13:29:53.127Z,24.30
2018-04-24T13:32:22.934Z,21.23
2018-04-24T13:34:52.727Z,22.53
2018-04-24T13:37:22.543Z,26.37
2018-04-24T13:39:52.352Z,25.37
2018-04-24T13:42:22.164Z,23.60
2018-04-24T13:44:51.971Z,23.77
2018-04-24T13:47:21.775Z,27.73
2018-04-24T13:49:51.583Z,26.73
2018-04-24T13:52:22.185Z,28.67
2018-04-24T13:54:52.068Z,31.47
2018-04-24T13:57:21.883Z,29.27
2018-04-24T13:59:51.688Z,27.63
2018-04-24T14:02:21.511Z,32.60
2018-04-24T14:04:51.332Z,32.27
2018-04-24T14:07:21.147Z,25.60
2018-04-24T14:09:50.943Z,29.60
2018-04-24T14:12:20.854Z,26.53
2018-04-24T14:14:50.587Z,29.33
2018-04-24T14:17:20.400Z,29.43
2018-04-24T14:19:50.203Z,24.20
2018-04-24T14:22:20.017Z,30.47
2018-04-24T14:24:49.815Z,26.83
2018-04-24T14:27:19.655Z,22.17
2018-04-24T14:29:49.452Z,21.37
2018-04-24T14:32:19.264Z,21.83
2018-04-24T14:34:49.075Z,22.20
2018-04-24T14:37:19.670Z,23.53
2018-04-24T14:39:49.478Z,23.73
2018-04-24T14:42:23.220Z,19.10
2018-04-24T14:44:53.029Z,25.17
2018-04-24T14:47:22.840Z,20.10
2018-04-24T14:49:52.647Z,21.67
2018-04-24T14:52:22.467Z,19.57
2018-04-24T14:54:52.268Z,20.37
2018-04-24T14:57:22.095Z,21.13
2018-04-24T14:59:51.899Z,19.13
2018-04-24T15:02:21.706Z,17.20
2018-04-24T15:04:51.538Z,17.63
2018-04-24T15:07:21.345Z,16.27
2018-04-24T15:09:51.150Z,18.67
2018-04-24T15:12:20.963Z,18.97
2018-04-24T15:14:50.771Z,14.07
2018-04-24T15:17:20.582Z,16.40
2018-04-24T15:19:50.384Z,18.10
2018-04-24T15:22:20.199Z,14.63
2018-04-24T15:24:49.995Z,17.73
2018-04-24T15:27:19.799Z,15.37
2018-04-24T15:29:49.595Z,14.47
2018-04-24T15:32:20.167Z,14.07
2018-04-24T15:34:49.985Z,15.43
2018-04-24T15:37:19.779Z,12.93
2018-04-24T15:39:49.575Z,12.17
2018-04-24T15:42:19.379Z,15.77
2018-04-24T15:44:49.183Z,16.77
2018-04-24T15:47:19.755Z,12.30
2018-04-24T15:49:49.546Z,11.70
2018-04-24T15:52:19.360Z,11.97
2018-04-24T15:54:49.172Z,13.50
2018-04-24T15:57:18.960Z,11.77
2018-04-24T15:59:49.538Z,13.30
2018-04-24T16:02:19.348Z,10.37
2018-04-24T16:04:49.152Z,10.73
2018-04-24T16:07:18.959Z,13.83
2018-04-24T16:09:48.773Z,9.60
2018-04-24T16:12:18.580Z,11.20
2018-04-24T16:14:48.380Z,11.97
2018-04-24T16:17:18.202Z,8.23
2018-04-24T16:19:47.990Z,12.20
2018-04-24T16:22:18.574Z,12.67
2018-04-24T16:24:48.370Z,13.33
2018-04-24T16:27:18.198Z,9.67
2018-04-24T16:29:48.056Z,11.70
2018-04-24T16:32:17.804Z,14.87
2018-04-24T16:34:47.602Z,12.27
2018-04-24T16:37:17.431Z,13.67
2018-04-24T16:39:47.222Z,12.53
2018-04-24T16:42:17.036Z,13.67
2018-04-24T16:44:46.844Z,12.93
2018-04-24T16:47:16.664Z,13.70
2018-04-24T16:49:46.480Z,13.47
2018-04-24T16:52:16.310Z,15.37
2018-04-24T16:54:46.123Z,15.70
2018-04-24T16:57:15.946Z,14.73
2018-04-24T16:59:45.761Z,17.87
2018-04-24T17:02:15.584Z,14.20
2018-04-24T17:04:45.415Z,15.43
2018-04-24T17:07:15.228Z,17.73
2018-04-24T17:09:45.797Z,15.30
2018-04-24T17:12:15.625Z,15.70
2018-04-24T17:14:45.493Z,17.90
2018-04-24T17:17:16.227Z,16.73
2018-04-24T17:19:46.047Z,19.00
2018-04-24T17:22:15.861Z,18.30
2018-04-24T17:24:46.444Z,21.70
2018-04-24T17:27:16.260Z,19.83
2018-04-24T17:29:46.145Z,23.00
2018-04-24T17:32:15.952Z,23.50
2018-04-24T17:34:45.762Z,24.83
2018-04-24T17:37:15.624Z,23.70
2018-04-24T17:39:45.380Z,22.97
2018-04-24T17:42:15.200Z,23.60
2018-04-24T17:44:45.152Z,24.50
2018-04-24T17:47:15.033Z,25.23
2018-04-24T17:49:45.244Z,25.00
2018-04-24T17:52:15.060Z,26.60
2018-04-24T17:54:44.871Z,26.80
2018-04-24T17:57:14.750Z,27.67
2018-04-24T17:59:44.476Z,28.27
2018-04-24T18:02:15.065Z,24.90
2018-04-24T18:04:44.995Z,27.17
2018-04-24T18:07:14.939Z,22.17
2018-04-24T18:09:45.714Z,21.27
2018-04-24T18:12:15.652Z,21.43
2018-04-24T18:14:45.457Z,23.47
2018-04-24T18:17:15.268Z,21.23
2018-04-24T18:19:45.314Z,22.17
2018-04-24T18:22:15.257Z,29.13
2018-04-24T18:24:45.856Z,30.83
2018-04-24T18:27:15.664Z,29.67
2018-04-24T18:29:45.477Z,21.67
2018-04-24T18:32:15.301Z,20.90
2018-04-24T18:34:45.138Z,24.47
2018-04-24T18:37:15.717Z,20.37
2018-04-24T18:39:45.538Z,16.47
2018-04-24T18:42:15.353Z,16.73
2018-04-24T18:44:45.161Z,18.90
2018-04-24T18:47:14.960Z,19.07
2018-04-24T18:49:44.776Z,16.23
2018-04-24T18:52:14.587Z,16.63
2018-04-24T18:54:44.400Z,13.37
2018-04-24T18:57:14.977Z,20.33
2018-04-24T18:59:44.778Z,13.73
2018-04-24T19:02:15.435Z,19.70
2018-04-24T19:04:46.017Z,22.80
2018-04-24T19:07:15.839Z,15.20
2018-04-24T19:09:45.647Z,18.47
2018-04-24T19:12:15.452Z,19.90
2018-04-24T19:14:45.268Z,19.37
2018-04-24T19:17:15.075Z,19.23
2018-04-24T19:19:44.892Z,13.47
2018-04-24T19:22:14.690Z,18.27
2018-04-24T19:24:49.951Z,15.00
2018-04-24T19:27:19.752Z,16.57
2018-04-24T19:29:49.561Z,12.63
2018-04-24T19:32:24.670Z,17.77
2018-04-24T19:34:54.477Z,15.53
2018-04-24T19:37:24.289Z,16.83
2018-04-24T19:39:59.442Z,14.50
2018-04-24T19:42:29.239Z,14.70
2018-04-24T19:44:59.046Z,20.93
2018-04-24T19:47:28.850Z,17.67
2018-04-24T19:50:04.131Z,18.47
2018-04-24T19:52:33.933Z,18.10
2018-04-24T19:55:09.100Z,18.10
2018-04-24T19:57:38.903Z,14.23
2018-04-24T20:00:08.713Z,23.70
2018-04-24T20:02:38.512Z,20.10
2018-04-24T20:05:08.315Z,19.20
2018-04-24T20:07:38.127Z,17.40
2018-04-24T20:10:07.944Z,19.53
2018-04-24T20:12:37.744Z,18.57
2018-04-24T20:15:08.017Z,16.53
2018-04-24T20:17:39.670Z,16.53
2018-04-24T20:20:09.663Z,18.53
2018-04-24T20:22:39.520Z,17.13
2018-04-24T20:25:10.127Z,18.50
2018-04-24T20:27:39.968Z,16.80
2018-04-24T20:30:09.788Z,17.83
2018-04-24T20:32:39.597Z,20.43
2018-04-24T20:35:09.431Z,14.90
2018-04-24T20:37:39.247Z,20.37
2018-04-24T20:40:09.071Z,19.37
2018-04-24T20:42:38.887Z,18.27
2018-04-24T20:45:08.711Z,15.77
2018-04-24T20:47:38.511Z,19.37
2018-04-24T20:50:08.492Z,18.17
2018-04-24T20:52:38.448Z,17.57
2018-04-24T20:55:08.268Z,14.67
2018-04-24T20:57:38.096Z,20.73
2018-04-24T21:00:07.901Z,18.03
2018-04-24T21:02:38.724Z,16.87
2018-04-24T21:05:08.543Z,20.77
2018-04-24T21:07:38.377Z,18.57
2018-04-24T21:10:08.950Z,18.27
2018-04-24T21:12:38.815Z,17.23
2018-04-24T21:15:08.656Z,18.17
2018-04-24T21:17:38.539Z,20.50
2018-04-24T21:20:09.569Z,20.87
2018-04-24T21:22:39.479Z,19.60
2018-04-24T21:25:09.300Z,15.90
2018-04-24T21:27:39.103Z,12.60
2018-04-24T21:30:08.921Z,13.50
2018-04-24T21:32:38.728Z,14.47
2018-04-24T21:35:08.558Z,13.37
2018-04-24T21:37:38.355Z,16.40
2018-04-24T21:40:08.168Z,15.90
2018-04-24T21:42:38.020Z,15.63
2018-04-24T21:45:08.609Z,18.33
2018-04-24T21:47:39.158Z,19.07
2018-04-24T21:50:09.743Z,19.03
2018-04-24T21:52:39.544Z,20.40
2018-04-24T21:55:09.347Z,15.53
2018-04-24T21:57:39.156Z,19.97
2018-04-24T22:00:08.961Z,16.63
2018-04-24T22:02:38.767Z,22.00
2018-04-24T22:05:08.579Z,16.17
2018-04-24T22:07:38.385Z,21.40
2018-04-24T22:10:08.955Z,19.47
2018-04-24T22:12:38.756Z,21.10
2018-04-24T22:15:08.584Z,19.40
2018-04-24T22:17:38.389Z,20.70
2018-04-24T22:20:08.200Z,18.43
2018-04-24T22:22:38.007Z,15.57
2018-04-24T22:25:07.816Z,20.30
2018-04-24T22:27:37.619Z,23.50
2018-04-24T22:30:07.443Z,21.07
2018-04-24T22:32:37.247Z,22.23
2018-04-24T22:35:07.047Z,19.30
2018-04-24T22:37:36.938Z,19.83
2018-04-24T22:40:07.423Z,16.10
2018-04-24T22:42:37.249Z,16.67
2018-04-24T22:45:07.060Z,20.67
2018-04-24T22:47:36.860Z,18.37
2018-04-24T22:50:06.677Z,22.13
2018-04-24T22:52:36.585Z,20.63
2018-04-24T22:55:06.301Z,22.57
2018-04-24T22:57:36.117Z,20.90
2018-04-24T23:00:05.923Z,21.30
2018-04-24T23:02:35.404Z,24.90
2018-04-24T23:05:05.214Z,24.47
2018-04-24T23:07:35.045Z,22.47
2018-04-24T23:10:04.092Z,22.43
2018-04-24T23:12:51.308Z,23.33
2018-04-24T23:15:44.871Z,22.57
2018-04-24T23:18:38.452Z,25.30
2018-04-24T23:21:13.488Z,23.70
2018-04-24T23:23:44.046Z,26.30
2018-04-24T23:26:13.862Z,23.87
2018-04-24T23:28:43.672Z,25.13
2018-04-24T23:31:13.490Z,23.47
2018-04-24T23:33:43.299Z,23.37
2018-04-24T23:36:13.107Z,24.13
2018-04-24T23:38:42.922Z,23.47
2018-04-24T23:41:12.730Z,28.27
2018-04-24T23:43:42.535Z,24.90
2018-04-24T23:46:12.360Z,28.30
2018-04-24T23:48:42.159Z,27.33
2018-04-24T23:51:11.971Z,23.73
2018-04-24T23:53:41.785Z,22.97
2018-04-24T23:56:11.598Z,25.13
2018-04-24T23:58:41.400Z,27.87
